Ekin-s — TCMW3 — position and weather

sailwx.info

Track history (hours):
 
Tides and Currents Weather Stations Pressure Air Temp Water Temp Dewpoint Dewpoint Depression Visibility Wind Speed Wind Dir Waves Ship Positions

Ekin-s

Last reported at 2015-Apr-19 13:28 UTC. Time now 2015-Apr-19 14:07 UTC.
Position N 38°52' E 009°32'.

Length 109 m; draft 6.9 m.

Type: Ship. MMSI: 271042836.

Date/timePositionNaut miles runAvg speedWind from/ knotsBaromVisibWave heightAir tempDewpointWater temp
2015-Apr-19 13:28N 38°52' E 009°32'1212.5
2015-Apr-19 12:33N 38°49' E 009°18'1212.5
2015-Apr-19 11:34N 38°46' E 009°03'1212.1
2015-Apr-19 10:33N 38°42' E 008°47'1211.9
2015-Apr-19 09:31N 38°40' E 008°32'1212.7
2015-Apr-19 08:33N 38°41' E 008°16'19012.5
2015-Apr-18 17:21N 38°50' E 004°12'1012.2
2015-Apr-18 16:31N 38°51' E 003°59'1512.3
2015-Apr-18 15:19N 38°53' E 003°40'912.3
2015-Apr-18 14:33N 38°54' E 003°28'1212.3
2015-Apr-18 13:34N 38°55' E 003°13'1212.4
2015-Apr-18 12:33N 38°56' E 002°57'1211.9
2015-Apr-18 11:33N 38°59' E 002°42'1212.1
2015-Apr-18 10:33N 39°04' E 002°28'1212.4
2015-Apr-18 09:33N 39°09' E 002°13'1212.4
2015-Apr-18 08:33N 39°14' E 001°59'1212.3
2015-Apr-18 07:33N 39°20' E 001°45'1212.4
2015-Apr-18 06:33N 39°25' E 001°30'1212.1
2015-Apr-18 05:33N 39°30' E 001°16'62 1.6
2015-Apr-16 16:07N 39°58' E 000°04'0 0.0
2015-Apr-16 14:19N 39°58' E 000°04'12011.2
2015-Apr-16 03:33N 37°58' W 000°09'1313.4
2015-Apr-16 02:33N 37°47' W 000°18'1313.4
2015-Apr-16 01:33N 37°36' W 000°28'1313.3
2015-Apr-16 00:33N 37°26' W 000°39'1313.3
2015-Apr-15 23:33N 37°16' W 000°50'2013.5
2015-Apr-15 22:05N 37°02' W 001°07'21112.0
2015-Apr-15 04:33N 35°56' W 005°17'3 2.9
2015-Apr-15 03:31N 35°54' W 005°19'0 0.0
2015-Apr-15 02:31N 35°54' W 005°19'0 0.0
2015-Apr-15 01:31N 35°54' W 005°19'0 0.4
2015-Apr-15 00:34N 35°54' W 005°19'1 1.4
2015-Apr-14 23:33N 35°55' W 005°19'2 2.2
2015-Apr-14 22:33N 35°57' W 005°22'22811.2
2015-Apr-14 02:15N 37°25' W 009°44'913.0
2015-Apr-14 01:33N 37°34' W 009°46'1313.0
2015-Apr-14 00:33N 37°46' W 009°50'1313.2
2015-Apr-13 23:33N 37°59' W 009°53'1313.1
2015-Apr-13 22:32N 38°12' W 009°57'1313.3
2015-Apr-13 21:33N 38°25' W 010°00'1413.7
2015-Apr-13 20:33N 38°38' W 010°04'1413.8
2015-Apr-13 19:33N 38°52' W 010°05'1413.5
2015-Apr-13 18:33N 39°06' W 010°05'1413.7
2015-Apr-13 17:33N 39°19' W 010°05'379 9.5
2015-Apr-12 01:29N 43°46' W 004°05'  
Track history (hours):
 
Tides and Currents Weather Stations Pressure Air Temp Water Temp Dewpoint Dewpoint Depression Visibility Wind Speed Wind Dir Waves Ship Positions

Ekin-s

Last reported at 2015-Apr-19 13:28 UTC. Time now 2015-Apr-19 14:07 UTC.
Position N 38°52' E 009°32'.

Length 109 m; draft 6.9 m.

Type: Ship. MMSI: 271042836.

Date/timePositionNaut miles runAvg speedWind from/ knotsBaromVisibWave heightAir tempDewpointWater temp
2015-Apr-19 13:28N 38°52' E 009°32'1212.5
2015-Apr-19 12:33N 38°49' E 009°18'1212.5
2015-Apr-19 11:34N 38°46' E 009°03'1212.1
2015-Apr-19 10:33N 38°42' E 008°47'1211.9
2015-Apr-19 09:31N 38°40' E 008°32'1212.7
2015-Apr-19 08:33N 38°41' E 008°16'19012.5
2015-Apr-18 17:21N 38°50' E 004°12'1012.2
2015-Apr-18 16:31N 38°51' E 003°59'1512.3
2015-Apr-18 15:19N 38°53' E 003°40'912.3
2015-Apr-18 14:33N 38°54' E 003°28'1212.3
2015-Apr-18 13:34N 38°55' E 003°13'1212.4
2015-Apr-18 12:33N 38°56' E 002°57'1211.9
2015-Apr-18 11:33N 38°59' E 002°42'1212.1
2015-Apr-18 10:33N 39°04' E 002°28'1212.4
2015-Apr-18 09:33N 39°09' E 002°13'1212.4
2015-Apr-18 08:33N 39°14' E 001°59'1212.3
2015-Apr-18 07:33N 39°20' E 001°45'1212.4
2015-Apr-18 06:33N 39°25' E 001°30'1212.1
2015-Apr-18 05:33N 39°30' E 001°16'62 1.6
2015-Apr-16 16:07N 39°58' E 000°04'0 0.0
2015-Apr-16 14:19N 39°58' E 000°04'12011.2
2015-Apr-16 03:33N 37°58' W 000°09'1313.4
2015-Apr-16 02:33N 37°47' W 000°18'1313.4
2015-Apr-16 01:33N 37°36' W 000°28'1313.3
2015-Apr-16 00:33N 37°26' W 000°39'1313.3
2015-Apr-15 23:33N 37°16' W 000°50'2013.5
2015-Apr-15 22:05N 37°02' W 001°07'21112.0
2015-Apr-15 04:33N 35°56' W 005°17'3 2.9
2015-Apr-15 03:31N 35°54' W 005°19'0 0.0
2015-Apr-15 02:31N 35°54' W 005°19'0 0.0
2015-Apr-15 01:31N 35°54' W 005°19'0 0.4
2015-Apr-15 00:34N 35°54' W 005°19'1 1.4
2015-Apr-14 23:33N 35°55' W 005°19'2 2.2
2015-Apr-14 22:33N 35°57' W 005°22'22811.2
2015-Apr-14 02:15N 37°25' W 009°44'913.0
2015-Apr-14 01:33N 37°34' W 009°46'1313.0
2015-Apr-14 00:33N 37°46' W 009°50'1313.2
2015-Apr-13 23:33N 37°59' W 009°53'1313.1
2015-Apr-13 22:32N 38°12' W 009°57'1313.3
2015-Apr-13 21:33N 38°25' W 010°00'1413.7
2015-Apr-13 20:33N 38°38' W 010°04'1413.8
2015-Apr-13 19:33N 38°52' W 010°05'1413.5
2015-Apr-13 18:33N 39°06' W 010°05'1413.7
2015-Apr-13 17:33N 39°19' W 010°05'379 9.5
2015-Apr-12 01:29N 43°46' W 004°05'  

Dump ship's entire track history